sensor_id;sensor_type;location;lat;lon;timestamp;pressure;altitude;pressure_sealevel;temperature;humidity
63552;BME280;49698;48.072;7.800;2023-03-23T00:02:15;98865.59;;;12.41;74.28
63552;BME280;49698;48.072;7.800;2023-03-23T00:04:42;98865.13;;;12.39;74.31
63552;BME280;49698;48.072;7.800;2023-03-23T00:07:09;98873.66;;;12.41;74.36
63552;BME280;49698;48.072;7.800;2023-03-23T00:09:38;98866.69;;;12.40;74.47
63552;BME280;49698;48.072;7.800;2023-03-23T00:12:07;98866.09;;;12.43;74.41
63552;BME280;49698;48.072;7.800;2023-03-23T00:14:35;98866.09;;;12.43;74.36
63552;BME280;49698;48.072;7.800;2023-03-23T00:17:07;98868.78;;;12.43;74.31
63552;BME280;49698;48.072;7.800;2023-03-23T00:19:36;98865.28;;;12.43;74.30
63552;BME280;49698;48.072;7.800;2023-03-23T00:22:12;98859.09;;;12.42;74.39
63552;BME280;49698;48.072;7.800;2023-03-23T00:24:39;98860.19;;;12.41;74.47
63552;BME280;49698;48.072;7.800;2023-03-23T00:27:06;98856.19;;;12.39;74.61
63552;BME280;49698;48.072;7.800;2023-03-23T00:29:36;98856.53;;;12.37;74.65
63552;BME280;49698;48.072;7.800;2023-03-23T00:32:03;98847.97;;;12.35;74.82
63552;BME280;49698;48.072;7.800;2023-03-23T00:34:31;98854.44;;;12.34;75.06
63552;BME280;49698;48.072;7.800;2023-03-23T00:37:00;98849.03;;;12.34;74.76
63552;BME280;49698;48.072;7.800;2023-03-23T00:39:27;98841.75;;;12.35;75.08
63552;BME280;49698;48.072;7.800;2023-03-23T00:41:55;98837.19;;;12.35;74.94
63552;BME280;49698;48.072;7.800;2023-03-23T00:44:26;98843.66;;;12.34;75.24
63552;BME280;49698;48.072;7.800;2023-03-23T00:46:55;98845.88;;;12.32;75.12
63552;BME280;49698;48.072;7.800;2023-03-23T00:49:23;98850.75;;;12.30;75.51
63552;BME280;49698;48.072;7.800;2023-03-23T00:51:51;98843.00;;;12.29;75.42
63552;BME280;49698;48.072;7.800;2023-03-23T00:54:19;98845.69;;;12.29;75.45
63552;BME280;49698;48.072;7.800;2023-03-23T00:56:49;98830.31;;;12.29;75.78
63552;BME280;49698;48.072;7.800;2023-03-23T00:59:17;98832.22;;;12.29;75.72
63552;BME280;49698;48.072;7.800;2023-03-23T01:01:44;98819.03;;;12.27;75.77
63552;BME280;49698;48.072;7.800;2023-03-23T01:04:14;98825.53;;;12.26;75.87
63552;BME280;49698;48.072;7.800;2023-03-23T01:06:43;98832.50;;;12.27;75.98
63552;BME280;49698;48.072;7.800;2023-03-23T01:09:13;98834.59;;;12.30;76.07
63552;BME280;49698;48.072;7.800;2023-03-23T01:11:42;98836.19;;;12.31;76.19
63552;BME280;49698;48.072;7.800;2023-03-23T01:14:11;98817.81;;;12.33;76.33
63552;BME280;49698;48.072;7.800;2023-03-23T01:16:38;98821.00;;;12.35;76.25
63552;BME280;49698;48.072;7.800;2023-03-23T01:19:05;98809.41;;;12.35;76.63
63552;BME280;49698;48.072;7.800;2023-03-23T01:21:33;98808.16;;;12.32;77.01
63552;BME280;49698;48.072;7.800;2023-03-23T01:24:01;98810.34;;;12.30;77.44
63552;BME280;49698;48.072;7.800;2023-03-23T01:26:28;98802.25;;;12.30;77.61
63552;BME280;49698;48.072;7.800;2023-03-23T01:28:55;98795.28;;;12.29;77.89
63552;BME280;49698;48.072;7.800;2023-03-23T01:31:24;98792.91;;;12.28;77.99
63552;BME280;49698;48.072;7.800;2023-03-23T01:33:52;98792.09;;;12.27;78.20
63552;BME280;49698;48.072;7.800;2023-03-23T01:36:23;98795.91;;;12.26;78.52
63552;BME280;49698;48.072;7.800;2023-03-23T01:38:52;98788.13;;;12.24;79.12
63552;BME280;49698;48.072;7.800;2023-03-23T01:41:19;98782.75;;;12.24;78.92
63552;BME280;49698;48.072;7.800;2023-03-23T01:44:01;98780.53;;;12.27;79.12
63552;BME280;49698;48.072;7.800;2023-03-23T01:46:35;98771.03;;;12.29;78.85
63552;BME280;49698;48.072;7.800;2023-03-23T01:49:06;98774.69;;;12.33;78.67
63552;BME280;49698;48.072;7.800;2023-03-23T01:51:37;98776.28;;;12.34;78.89
63552;BME280;49698;48.072;7.800;2023-03-23T01:54:13;98775.84;;;12.41;78.11
63552;BME280;49698;48.072;7.800;2023-03-23T01:56:49;98769.38;;;12.51;77.07
63552;BME280;49698;48.072;7.800;2023-03-23T01:59:17;98757.22;;;12.62;75.99
63552;BME280;49698;48.072;7.800;2023-03-23T02:01:49;98765.53;;;12.74;75.20
63552;BME280;49698;48.072;7.800;2023-03-23T02:08:32;98766.78;;;12.77;74.69
63552;BME280;49698;48.072;7.800;2023-03-23T02:11:11;98758.22;;;12.75;75.06
63552;BME280;49698;48.072;7.800;2023-03-23T02:13:39;98747.88;;;12.68;75.36
63552;BME280;49698;48.072;7.800;2023-03-23T02:16:11;98731.88;;;12.63;75.62
63552;BME280;49698;48.072;7.800;2023-03-23T02:18:50;98735.00;;;12.56;76.11
63552;BME280;49698;48.072;7.800;2023-03-23T02:21:51;98739.44;;;12.52;76.54
63552;BME280;49698;48.072;7.800;2023-03-23T02:24:49;98740.53;;;12.51;76.71
63552;BME280;49698;48.072;7.800;2023-03-23T02:27:40;98726.25;;;12.51;77.03
63552;BME280;49698;48.072;7.800;2023-03-23T02:30:27;98728.66;;;12.52;76.59
63552;BME280;49698;48.072;7.800;2023-03-23T02:33:19;98724.22;;;12.56;75.98
63552;BME280;49698;48.072;7.800;2023-03-23T02:35:54;98719.19;;;12.63;75.26
63552;BME280;49698;48.072;7.800;2023-03-23T02:38:26;98702.84;;;12.77;73.54
63552;BME280;49698;48.072;7.800;2023-03-23T02:40:56;98700.66;;;12.96;71.93
63552;BME280;49698;48.072;7.800;2023-03-23T02:43:30;98702.28;;;13.15;70.69
63552;BME280;49698;48.072;7.800;2023-03-23T02:45:58;98699.78;;;13.27;69.75
63552;BME280;49698;48.072;7.800;2023-03-23T02:48:29;98691.53;;;13.41;68.41
63552;BME280;49698;48.072;7.800;2023-03-23T02:50:58;98702.47;;;13.53;67.46
63552;BME280;49698;48.072;7.800;2023-03-23T02:53:26;98708.97;;;13.61;66.73
63552;BME280;49698;48.072;7.800;2023-03-23T02:55:55;98708.03;;;13.65;65.97
63552;BME280;49698;48.072;7.800;2023-03-23T02:58:27;98712.16;;;13.72;65.47
63552;BME280;49698;48.072;7.800;2023-03-23T03:00:55;98714.34;;;13.78;64.99
63552;BME280;49698;48.072;7.800;2023-03-23T03:03:25;98715.78;;;13.84;64.35
63552;BME280;49698;48.072;7.800;2023-03-23T03:05:58;98707.81;;;13.88;63.75
63552;BME280;49698;48.072;7.800;2023-03-23T03:08:34;98704.31;;;13.96;62.63
63552;BME280;49698;48.072;7.800;2023-03-23T03:11:08;98709.38;;;14.06;62.28
63552;BME280;49698;48.072;7.800;2023-03-23T03:13:44;98703.47;;;14.13;61.99
63552;BME280;49698;48.072;7.800;2023-03-23T03:16:21;98694.72;;;14.16;61.65
63552;BME280;49698;48.072;7.800;2023-03-23T03:18:54;98689.78;;;14.18;61.30
63552;BME280;49698;48.072;7.800;2023-03-23T03:21:27;98690.56;;;14.18;60.86
63552;BME280;49698;48.072;7.800;2023-03-23T03:23:58;98683.75;;;14.21;60.50
63552;BME280;49698;48.072;7.800;2023-03-23T03:26:28;98683.84;;;14.25;60.34
63552;BME280;49698;48.072;7.800;2023-03-23T03:29:08;98688.31;;;14.29;59.91
63552;BME280;49698;48.072;7.800;2023-03-23T03:31:41;98682.72;;;14.34;59.30
63552;BME280;49698;48.072;7.800;2023-03-23T03:34:12;98679.97;;;14.43;58.80
63552;BME280;49698;48.072;7.800;2023-03-23T03:36:45;98668.69;;;14.50;58.43
63552;BME280;49698;48.072;7.800;2023-03-23T03:39:14;98678.06;;;14.52;58.24
63552;BME280;49698;48.072;7.800;2023-03-23T03:41:43;98663.56;;;14.57;57.68
63552;BME280;49698;48.072;7.800;2023-03-23T03:44:10;98671.47;;;14.62;57.20
63552;BME280;49698;48.072;7.800;2023-03-23T03:46:37;98675.59;;;14.68;56.73
63552;BME280;49698;48.072;7.800;2023-03-23T03:49:06;98683.16;;;14.75;56.58
63552;BME280;49698;48.072;7.800;2023-03-23T03:51:36;98670.47;;;14.75;56.61
63552;BME280;49698;48.072;7.800;2023-03-23T03:54:06;98675.19;;;14.78;56.18
63552;BME280;49698;48.072;7.800;2023-03-23T03:56:33;98670.69;;;14.82;55.82
63552;BME280;49698;48.072;7.800;2023-03-23T03:59:24;98685.50;;;14.85;55.68
63552;BME280;49698;48.072;7.800;2023-03-23T04:02:23;98679.31;;;14.84;55.30
63552;BME280;49698;48.072;7.800;2023-03-23T04:04:51;98689.47;;;14.87;55.15
63552;BME280;49698;48.072;7.800;2023-03-23T04:07:19;98700.44;;;14.91;55.11
63552;BME280;49698;48.072;7.800;2023-03-23T04:09:49;98702.81;;;14.92;54.99
63552;BME280;49698;48.072;7.800;2023-03-23T04:12:19;98704.38;;;14.93;54.82
63552;BME280;49698;48.072;7.800;2023-03-23T04:14:55;98692.91;;;14.97;54.65
63552;BME280;49698;48.072;7.800;2023-03-23T04:17:26;98701.50;;;14.99;54.62
63552;BME280;49698;48.072;7.800;2023-03-23T04:19:54;98696.09;;;14.99;54.40
63552;BME280;49698;48.072;7.800;2023-03-23T04:22:24;98692.69;;;15.02;53.83
63552;BME280;49698;48.072;7.800;2023-03-23T04:24:59;98684.84;;;15.09;53.49
63552;BME280;49698;48.072;7.800;2023-03-23T04:27:32;98696.28;;;15.14;53.21
63552;BME280;49698;48.072;7.800;2023-03-23T04:30:02;98693.72;;;15.18;53.20
63552;BME280;49698;48.072;7.800;2023-03-23T04:32:33;98702.28;;;15.20;52.88
63552;BME280;49698;48.072;7.800;2023-03-23T04:35:01;98702.41;;;15.24;53.04
63552;BME280;49698;48.072;7.800;2023-03-23T04:37:37;98714.50;;;15.26;52.88
63552;BME280;49698;48.072;7.800;2023-03-23T04:40:07;98701.78;;;15.27;52.90
63552;BME280;49698;48.072;7.800;2023-03-23T04:42:39;98707.63;;;15.29;53.05
63552;BME280;49698;48.072;7.800;2023-03-23T04:45:29;98718.81;;;15.27;52.94
63552;BME280;49698;48.072;7.800;2023-03-23T04:47:59;98725.13;;;15.31;52.91
63552;BME280;49698;48.072;7.800;2023-03-23T04:50:41;98725.28;;;15.35;52.53
63552;BME280;49698;48.072;7.800;2023-03-23T04:53:17;98714.44;;;15.35;52.57
63552;BME280;49698;48.072;7.800;2023-03-23T04:55:46;98737.69;;;15.36;52.38
63552;BME280;49698;48.072;7.800;2023-03-23T04:58:16;98736.69;;;15.40;52.45
63552;BME280;49698;48.072;7.800;2023-03-23T05:01:05;98733.31;;;15.44;52.47
63552;BME280;49698;48.072;7.800;2023-03-23T05:03:38;98737.59;;;15.45;52.15
63552;BME280;49698;48.072;7.800;2023-03-23T05:06:09;98739.53;;;15.44;52.45
63552;BME280;49698;48.072;7.800;2023-03-23T05:08:37;98740.31;;;15.45;52.33
63552;BME280;49698;48.072;7.800;2023-03-23T05:11:06;98735.72;;;15.45;52.29
63552;BME280;49698;48.072;7.800;2023-03-23T05:13:37;98735.38;;;15.47;51.95
63552;BME280;49698;48.072;7.800;2023-03-23T05:16:06;98735.50;;;15.50;51.94
63552;BME280;49698;48.072;7.800;2023-03-23T05:18:35;98732.00;;;15.50;52.24
63552;BME280;49698;48.072;7.800;2023-03-23T05:21:05;98726.13;;;15.48;52.20
63552;BME280;49698;48.072;7.800;2023-03-23T05:23:36;98730.31;;;15.45;52.06
63552;BME280;49698;48.072;7.800;2023-03-23T05:26:16;98736.50;;;15.46;52.14
63552;BME280;49698;48.072;7.800;2023-03-23T05:28:43;98730.31;;;15.45;52.50
63552;BME280;49698;48.072;7.800;2023-03-23T05:31:19;98738.41;;;15.45;52.58
63552;BME280;49698;48.072;7.800;2023-03-23T05:33:47;98742.56;;;15.43;52.61
63552;BME280;49698;48.072;7.800;2023-03-23T05:36:34;98755.31;;;15.42;52.74
63552;BME280;49698;48.072;7.800;2023-03-23T05:39:11;98742.09;;;15.40;52.94
63552;BME280;49698;48.072;7.800;2023-03-23T05:41:58;98744.81;;;15.40;52.83
63552;BME280;49698;48.072;7.800;2023-03-23T05:44:33;98747.50;;;15.40;53.02
63552;BME280;49698;48.072;7.800;2023-03-23T05:47:00;98754.53;;;15.41;53.21
63552;BME280;49698;48.072;7.800;2023-03-23T05:49:27;98764.09;;;15.39;53.25
63552;BME280;49698;48.072;7.800;2023-03-23T05:51:54;98764.91;;;15.39;53.03
63552;BME280;49698;48.072;7.800;2023-03-23T05:54:21;98767.28;;;15.41;53.07
63552;BME280;49698;48.072;7.800;2023-03-23T05:56:49;98774.28;;;15.42;53.22
63552;BME280;49698;48.072;7.800;2023-03-23T05:59:23;98787.47;;;15.44;53.29
63552;BME280;49698;48.072;7.800;2023-03-23T06:01:53;98785.91;;;15.43;53.30
63552;BME280;49698;48.072;7.800;2023-03-23T06:04:20;98790.84;;;15.40;53.45
63552;BME280;49698;48.072;7.800;2023-03-23T06:07:01;98796.25;;;15.40;53.69
63552;BME280;49698;48.072;7.800;2023-03-23T06:09:28;98805.06;;;15.37;53.98
63552;BME280;49698;48.072;7.800;2023-03-23T06:12:05;98805.72;;;15.34;53.94
63552;BME280;49698;48.072;7.800;2023-03-23T06:14:43;98797.75;;;15.29;54.22
63552;BME280;49698;48.072;7.800;2023-03-23T06:17:14;98809.28;;;15.26;54.62
63552;BME280;49698;48.072;7.800;2023-03-23T06:19:41;98811.50;;;15.24;54.87
63552;BME280;49698;48.072;7.800;2023-03-23T06:22:12;98804.03;;;15.21;55.08
63552;BME280;49698;48.072;7.800;2023-03-23T06:24:57;98803.88;;;15.17;54.91
63552;BME280;49698;48.072;7.800;2023-03-23T06:27:33;98811.22;;;15.17;55.13
63552;BME280;49698;48.072;7.800;2023-03-23T06:30:04;98801.84;;;15.14;55.22
63552;BME280;49698;48.072;7.800;2023-03-23T06:32:32;98804.88;;;15.13;55.47
63552;BME280;49698;48.072;7.800;2023-03-23T06:35:01;98806.00;;;15.12;55.38
63552;BME280;49698;48.072;7.800;2023-03-23T06:37:34;98795.19;;;15.12;55.54
63552;BME280;49698;48.072;7.800;2023-03-23T06:40:14;98793.25;;;15.12;55.32
63552;BME280;49698;48.072;7.800;2023-03-23T06:42:50;98794.06;;;15.13;55.51
63552;BME280;49698;48.072;7.800;2023-03-23T06:45:41;98785.47;;;15.11;55.76
63552;BME280;49698;48.072;7.800;2023-03-23T06:48:27;98804.72;;;15.09;55.78
63552;BME280;49698;48.072;7.800;2023-03-23T06:50:54;98806.19;;;15.07;55.96
63552;BME280;49698;48.072;7.800;2023-03-23T06:53:24;98819.25;;;15.05;56.15
63552;BME280;49698;48.072;7.800;2023-03-23T06:55:53;98818.81;;;15.03;56.20
63552;BME280;49698;48.072;7.800;2023-03-23T06:58:20;98832.34;;;15.03;56.08
63552;BME280;49698;48.072;7.800;2023-03-23T07:00:54;98843.16;;;15.03;56.17
63552;BME280;49698;48.072;7.800;2023-03-23T07:03:26;98854.63;;;15.00;56.19
63552;BME280;49698;48.072;7.800;2023-03-23T07:05:54;98854.16;;;14.98;56.26
63552;BME280;49698;48.072;7.800;2023-03-23T07:08:25;98853.69;;;14.96;56.30
63552;BME280;49698;48.072;7.800;2023-03-23T07:10:54;98849.88;;;14.97;56.36
63552;BME280;49698;48.072;7.800;2023-03-23T07:13:26;98852.22;;;14.98;56.13
63552;BME280;49698;48.072;7.800;2023-03-23T07:15:59;98849.66;;;15.02;56.05
63552;BME280;49698;48.072;7.800;2023-03-23T07:18:26;98857.16;;;15.05;56.35
63552;BME280;49698;48.072;7.800;2023-03-23T07:20:56;98857.16;;;15.05;55.99
63552;BME280;49698;48.072;7.800;2023-03-23T07:23:29;98861.59;;;15.09;56.04
63552;BME280;49698;48.072;7.800;2023-03-23T07:26:03;98861.13;;;15.07;57.09
63552;BME280;49698;48.072;7.800;2023-03-23T07:28:46;98872.13;;;15.02;57.81
63552;BME280;49698;48.072;7.800;2023-03-23T07:31:24;98882.34;;;14.97;58.33
63552;BME280;49698;48.072;7.800;2023-03-23T07:33:52;98875.97;;;14.92;58.88
63552;BME280;49698;48.072;7.800;2023-03-23T07:36:19;98875.84;;;14.89;59.31
63552;BME280;49698;48.072;7.800;2023-03-23T07:38:46;98876.47;;;14.86;59.71
63552;BME280;49698;48.072;7.800;2023-03-23T07:41:15;98882.53;;;14.83;59.79
63552;BME280;49698;48.072;7.800;2023-03-23T07:43:43;98874.75;;;14.81;59.91
63552;BME280;49698;48.072;7.800;2023-03-23T07:46:38;98873.47;;;14.79;60.37
63552;BME280;49698;48.072;7.800;2023-03-23T07:49:12;98884.28;;;14.79;60.22
63552;BME280;49698;48.072;7.800;2023-03-23T07:51:47;98889.41;;;14.80;60.57
63552;BME280;49698;48.072;7.800;2023-03-23T07:54:16;98890.19;;;14.81;60.53
63552;BME280;49698;48.072;7.800;2023-03-23T07:56:49;98891.31;;;14.80;61.05
63552;BME280;49698;48.072;7.800;2023-03-23T07:59:29;98905.63;;;14.80;60.91
63552;BME280;49698;48.072;7.800;2023-03-23T08:02:00;98899.44;;;14.80;61.33
63552;BME280;49698;48.072;7.800;2023-03-23T08:04:26;98902.44;;;14.78;61.68
63552;BME280;49698;48.072;7.800;2023-03-23T08:07:13;98907.56;;;14.80;61.93
63552;BME280;49698;48.072;7.800;2023-03-23T08:10:06;98921.88;;;14.80;62.10
63552;BME280;49698;48.072;7.800;2023-03-23T08:12:56;98913.13;;;14.83;62.27
63552;BME280;49698;48.072;7.800;2023-03-23T08:15:43;98914.69;;;14.84;62.85
63552;BME280;49698;48.072;7.800;2023-03-23T08:18:41;98921.22;;;14.83;63.27
63552;BME280;49698;48.072;7.800;2023-03-23T08:21:20;98921.69;;;14.85;63.42
63552;BME280;49698;48.072;7.800;2023-03-23T08:24:06;98907.38;;;14.85;63.74
63552;BME280;49698;48.072;7.800;2023-03-23T08:26:56;98926.31;;;14.85;63.82
63552;BME280;49698;48.072;7.800;2023-03-23T08:29:23;98936.66;;;14.83;63.99
63552;BME280;49698;48.072;7.800;2023-03-23T08:32:16;98918.81;;;14.82;64.12
63552;BME280;49698;48.072;7.800;2023-03-23T08:35:11;98917.41;;;14.84;64.20
63552;BME280;49698;48.072;7.800;2023-03-23T08:37:45;98915.63;;;14.88;64.16
63552;BME280;49698;48.072;7.800;2023-03-23T08:40:45;98933.78;;;14.88;64.53
63552;BME280;49698;48.072;7.800;2023-03-23T08:43:34;98937.13;;;14.85;64.79
63552;BME280;49698;48.072;7.800;2023-03-23T08:46:19;98939.34;;;14.83;65.04
63552;BME280;49698;48.072;7.800;2023-03-23T08:49:10;98936.19;;;14.81;65.48
63552;BME280;49698;48.072;7.800;2023-03-23T08:51:57;98937.31;;;14.80;65.48
63552;BME280;49698;48.072;7.800;2023-03-23T08:54:49;98939.34;;;14.83;65.28
63552;BME280;49698;48.072;7.800;2023-03-23T08:57:37;98944.75;;;14.91;65.05
63552;BME280;49698;48.072;7.800;2023-03-23T09:00:08;98953.66;;;15.01;64.84
63552;BME280;49698;48.072;7.800;2023-03-23T09:03:01;98946.47;;;15.05;65.03
63552;BME280;49698;48.072;7.800;2023-03-23T09:05:49;98947.25;;;15.05;65.42
63552;BME280;49698;48.072;7.800;2023-03-23T09:08:19;98941.38;;;15.03;65.24
63552;BME280;49698;48.072;7.800;2023-03-23T09:10:46;98947.91;;;15.02;65.83
63552;BME280;49698;48.072;7.800;2023-03-23T09:13:15;98944.88;;;15.04;65.65
63552;BME280;49698;48.072;7.800;2023-03-23T09:15:42;98944.69;;;15.09;65.66
63552;BME280;49698;48.072;7.800;2023-03-23T09:18:09;98945.19;;;15.11;65.49
63552;BME280;49698;48.072;7.800;2023-03-23T09:20:36;98940.22;;;15.13;65.67
63552;BME280;49698;48.072;7.800;2023-03-23T09:23:03;98947.38;;;15.17;65.41
63552;BME280;49698;48.072;7.800;2023-03-23T09:25:32;98943.88;;;15.26;65.04
63552;BME280;49698;48.072;7.800;2023-03-23T09:27:59;98940.78;;;15.36;64.88
63552;BME280;49698;48.072;7.800;2023-03-23T09:30:28;98938.50;;;15.47;64.67
63552;BME280;49698;48.072;7.800;2023-03-23T09:32:55;98924.91;;;15.55;64.03
63552;BME280;49698;48.072;7.800;2023-03-23T09:35:23;98923.78;;;15.65;63.90
63552;BME280;49698;48.072;7.800;2023-03-23T09:37:51;98934.22;;;15.75;63.42
63552;BME280;49698;48.072;7.800;2023-03-23T09:40:22;98922.34;;;15.88;63.34
63552;BME280;49698;48.072;7.800;2023-03-23T09:43:09;98929.44;;;16.02;63.11
63552;BME280;49698;48.072;7.800;2023-03-23T09:45:45;98931.09;;;16.15;62.89
63552;BME280;49698;48.072;7.800;2023-03-23T09:48:29;98931.34;;;16.22;62.81
63552;BME280;49698;48.072;7.800;2023-03-23T09:51:04;98948.81;;;16.33;62.13
63552;BME280;49698;48.072;7.800;2023-03-23T09:53:37;98947.63;;;16.43;61.70
63552;BME280;49698;48.072;7.800;2023-03-23T09:56:10;98934.63;;;16.49;61.28
63552;BME280;49698;48.072;7.800;2023-03-23T09:58:45;98943.91;;;16.48;60.64
63552;BME280;49698;48.072;7.800;2023-03-23T10:01:17;98931.47;;;16.47;60.37
63552;BME280;49698;48.072;7.800;2023-03-23T10:03:46;98943.91;;;16.48;60.33
63552;BME280;49698;48.072;7.800;2023-03-23T10:06:15;98940.06;;;16.49;60.01
63552;BME280;49698;48.072;7.800;2023-03-23T10:08:45;98939.91;;;16.45;59.65
63552;BME280;49698;48.072;7.800;2023-03-23T10:11:17;98943.63;;;16.41;59.27
63552;BME280;49698;48.072;7.800;2023-03-23T10:14:01;98948.94;;;16.37;58.61
63552;BME280;49698;48.072;7.800;2023-03-23T10:16:34;98945.13;;;16.38;58.19
63552;BME280;49698;48.072;7.800;2023-03-23T10:19:10;98938.94;;;16.50;57.60
63552;BME280;49698;48.072;7.800;2023-03-23T10:21:42;98953.91;;;16.68;56.56
63552;BME280;49698;48.072;7.800;2023-03-23T10:24:15;98951.31;;;16.80;56.20
63552;BME280;49698;48.072;7.800;2023-03-23T10:26:48;98950.06;;;16.90;55.73
63552;BME280;49698;48.072;7.800;2023-03-23T10:29:20;98943.44;;;17.00;55.33
63552;BME280;49698;48.072;7.800;2023-03-23T10:31:52;98947.50;;;17.06;54.73
63552;BME280;49698;48.072;7.800;2023-03-23T10:34:27;98945.03;;;17.13;54.67
63552;BME280;49698;48.072;7.800;2023-03-23T10:37:01;98943.22;;;17.17;54.42
63552;BME280;49698;48.072;7.800;2023-03-23T10:39:33;98935.88;;;17.18;54.06
63552;BME280;49698;48.072;7.800;2023-03-23T10:42:05;98923.41;;;17.17;53.82
63552;BME280;49698;48.072;7.800;2023-03-23T10:44:35;98927.28;;;17.16;53.96
63552;BME280;49698;48.072;7.800;2023-03-23T10:47:04;98924.22;;;17.17;53.74
63552;BME280;49698;48.072;7.800;2023-03-23T10:49:36;98932.00;;;17.19;53.59
63552;BME280;49698;48.072;7.800;2023-03-23T10:52:24;98933.25;;;17.21;53.66
63552;BME280;49698;48.072;7.800;2023-03-23T10:54:58;98942.78;;;17.27;53.60
63552;BME280;49698;48.072;7.800;2023-03-23T10:57:27;98932.72;;;17.28;53.49
63552;BME280;49698;48.072;7.800;2023-03-23T11:00:04;98938.03;;;17.36;52.91
63552;BME280;49698;48.072;7.800;2023-03-23T11:02:40;98936.34;;;17.44;52.96
63552;BME280;49698;48.072;7.800;2023-03-23T11:05:13;98939.59;;;17.50;52.87
63552;BME280;49698;48.072;7.800;2023-03-23T11:07:41;98949.25;;;17.59;52.90
63552;BME280;49698;48.072;7.800;2023-03-23T11:10:17;98947.06;;;17.65;52.63
63552;BME280;49698;48.072;7.800;2023-03-23T11:12:46;98950.25;;;17.67;52.42
63552;BME280;49698;48.072;7.800;2023-03-23T11:15:26;98947.31;;;17.72;52.47
63552;BME280;49698;48.072;7.800;2023-03-23T11:17:55;98929.69;;;17.78;52.48
63552;BME280;49698;48.072;7.800;2023-03-23T11:20:25;98933.28;;;17.82;52.24
63552;BME280;49698;48.072;7.800;2023-03-23T11:22:52;98944.03;;;17.91;52.00
63552;BME280;49698;48.072;7.800;2023-03-23T11:25:19;98936.44;;;17.97;51.82
63552;BME280;49698;48.072;7.800;2023-03-23T11:27:47;98935.75;;;18.00;51.67
63552;BME280;49698;48.072;7.800;2023-03-23T11:30:22;98938.56;;;18.03;51.68
63552;BME280;49698;48.072;7.800;2023-03-23T11:32:50;98939.34;;;18.16;51.40
63552;BME280;49698;48.072;7.800;2023-03-23T11:35:20;98929.75;;;18.34;51.10
63552;BME280;49698;48.072;7.800;2023-03-23T11:37:50;98930.16;;;18.49;50.74
63552;BME280;49698;48.072;7.800;2023-03-23T11:40:20;98921.84;;;18.57;50.72
63552;BME280;49698;48.072;7.800;2023-03-23T11:42:48;98929.66;;;18.59;50.49
63552;BME280;49698;48.072;7.800;2023-03-23T11:45:20;98928.25;;;18.65;50.41
63552;BME280;49698;48.072;7.800;2023-03-23T11:47:56;98922.63;;;18.70;49.98
63552;BME280;49698;48.072;7.800;2023-03-23T11:50:27;98932.56;;;18.78;49.76
63552;BME280;49698;48.072;7.800;2023-03-23T11:53:01;98929.09;;;18.81;49.87
63552;BME280;49698;48.072;7.800;2023-03-23T11:58:18;98929.47;;;18.80;49.96
63552;BME280;49698;48.072;7.800;2023-03-23T12:00:51;98917.16;;;18.70;50.17
63552;BME280;49698;48.072;7.800;2023-03-23T12:03:21;98915.78;;;18.64;50.03
63552;BME280;49698;48.072;7.800;2023-03-23T12:05:53;98911.25;;;18.68;49.65
63552;BME280;49698;48.072;7.800;2023-03-23T12:08:32;98914.31;;;18.67;49.27
63552;BME280;49698;48.072;7.800;2023-03-23T12:11:10;98909.47;;;18.60;49.54
63552;BME280;49698;48.072;7.800;2023-03-23T12:13:54;98907.34;;;18.53;49.37
63552;BME280;49698;48.072;7.800;2023-03-23T12:16:32;98896.81;;;18.52;49.34
63552;BME280;49698;48.072;7.800;2023-03-23T12:19:09;98901.56;;;18.55;49.24
63552;BME280;49698;48.072;7.800;2023-03-23T12:21:47;98896.81;;;18.52;49.23
63552;BME280;49698;48.072;7.800;2023-03-23T12:24:27;98894.00;;;18.48;49.30
63552;BME280;49698;48.072;7.800;2023-03-23T12:27:00;98898.19;;;18.46;49.17
63552;BME280;49698;48.072;7.800;2023-03-23T12:29:42;98903.03;;;18.52;49.04
63552;BME280;49698;48.072;7.800;2023-03-23T12:32:39;98891.56;;;18.59;48.97
63552;BME280;49698;48.072;7.800;2023-03-23T12:35:33;98896.84;;;18.68;48.84
63552;BME280;49698;48.072;7.800;2023-03-23T12:38:12;98889.09;;;18.70;48.47
63552;BME280;49698;48.072;7.800;2023-03-23T12:40:50;98890.72;;;18.71;48.32
63552;BME280;49698;48.072;7.800;2023-03-23T12:43:28;98892.53;;;18.67;48.40
63552;BME280;49698;48.072;7.800;2023-03-23T12:46:17;98883.50;;;18.63;48.57
63552;BME280;49698;48.072;7.800;2023-03-23T12:48:51;98894.72;;;18.61;48.38
63552;BME280;49698;48.072;7.800;2023-03-23T12:51:26;98894.72;;;18.61;48.09
63552;BME280;49698;48.072;7.800;2023-03-23T12:53:57;98887.00;;;18.63;48.21
63552;BME280;49698;48.072;7.800;2023-03-23T12:56:30;98883.50;;;18.63;48.22
63552;BME280;49698;48.072;7.800;2023-03-23T12:59:04;98882.25;;;18.60;48.35
63552;BME280;49698;48.072;7.800;2023-03-23T13:01:38;98881.38;;;18.56;48.38
63552;BME280;49698;48.072;7.800;2023-03-23T13:04:09;98881.38;;;18.56;48.45
63552;BME280;49698;48.072;7.800;2023-03-23T13:06:40;98887.50;;;18.53;48.45
63552;BME280;49698;48.072;7.800;2023-03-23T13:09:13;98874.16;;;18.48;48.61
63552;BME280;49698;48.072;7.800;2023-03-23T13:11:42;98881.84;;;18.46;48.77
63552;BME280;49698;48.072;7.800;2023-03-23T13:14:35;98875.53;;;18.42;48.80
63552;BME280;49698;48.072;7.800;2023-03-23T13:17:14;98880.09;;;18.38;49.07
63552;BME280;49698;48.072;7.800;2023-03-23T13:20:15;98875.34;;;18.34;49.28
63552;BME280;49698;48.072;7.800;2023-03-23T13:22:51;98878.50;;;18.37;49.31
63552;BME280;49698;48.072;7.800;2023-03-23T13:25:32;98883.16;;;18.36;49.52
63552;BME280;49698;48.072;7.800;2023-03-23T13:28:13;98874.34;;;18.27;49.57
63552;BME280;49698;48.072;7.800;2023-03-23T13:30:41;98882.75;;;18.22;49.72
63552;BME280;49698;48.072;7.800;2023-03-23T13:33:20;98883.34;;;18.15;49.73
63552;BME280;49698;48.072;7.800;2023-03-23T13:35:49;98875.44;;;18.10;49.90
63552;BME280;49698;48.072;7.800;2023-03-23T13:38:21;98878.06;;;18.06;49.74
63552;BME280;49698;48.072;7.800;2023-03-23T13:40:50;98871.63;;;17.99;49.50
63552;BME280;49698;48.072;7.800;2023-03-23T13:43:27;98871.97;;;17.97;49.67